sensor_id;sensor_type;location;lat;lon;timestamp;pressure;altitude;pressure_sealevel;temperature;humidity
7337;BME280;54510;42.016;23.098;2023-04-28T00:00:41;-21406.81;;;9.89;52.36
7337;BME280;54510;42.016;23.098;2023-04-28T00:03:06;-21412.09;;;10.09;51.93
7337;BME280;54510;42.016;23.098;2023-04-28T00:05:31;-21406.66;;;9.89;52.18
7337;BME280;54510;42.016;23.098;2023-04-28T00:07:57;-21410.28;;;10.02;51.99
7337;BME280;54510;42.016;23.098;2023-04-28T00:10:22;-21413.75;;;10.15;51.76
7337;BME280;54510;42.016;23.098;2023-04-28T00:12:47;-21416.41;;;10.24;51.82
7337;BME280;54510;42.016;23.098;2023-04-28T00:15:12;-21418.75;;;10.33;51.72
7337;BME280;54510;42.016;23.098;2023-04-28T00:17:38;-21417.38;;;10.28;51.79
7337;BME280;54510;42.016;23.098;2023-04-28T00:20:03;-21415.00;;;10.19;51.90
7337;BME280;54510;42.016;23.098;2023-04-28T00:22:29;-21410.56;;;10.03;52.31
7337;BME280;54510;42.016;23.098;2023-04-28T00:24:55;-21407.91;;;9.94;53.34
7337;BME280;54510;42.016;23.098;2023-04-28T00:27:20;-21406.66;;;9.89;52.99
7337;BME280;54510;42.016;23.098;2023-04-28T00:29:45;-21403.19;;;9.76;53.89
7337;BME280;54510;42.016;23.098;2023-04-28T00:32:11;-21408.06;;;9.94;53.29
7337;BME280;54510;42.016;23.098;2023-04-28T00:34:37;-21409.03;;;9.98;53.30
7337;BME280;54510;42.016;23.098;2023-04-28T00:37:02;-21404.03;;;9.79;53.99
7337;BME280;54510;42.016;23.098;2023-04-28T00:39:28;-21396.09;;;9.50;54.75
7337;BME280;54510;42.016;23.098;2023-04-28T00:41:53;-21402.50;;;9.74;54.44
7337;BME280;54510;42.016;23.098;2023-04-28T00:44:19;-21408.19;;;9.95;53.77
7337;BME280;54510;42.016;23.098;2023-04-28T00:46:44;-21393.03;;;9.39;55.07
7337;BME280;54510;42.016;23.098;2023-04-28T00:49:10;-21393.88;;;9.42;55.32
7337;BME280;54510;42.016;23.098;2023-04-28T00:51:35;-21393.75;;;9.42;55.46
7337;BME280;54510;42.016;23.098;2023-04-28T00:54:00;-21396.81;;;9.53;55.74
7337;BME280;54510;42.016;23.098;2023-04-28T00:56:27;-21401.25;;;9.69;54.96
7337;BME280;54510;42.016;23.098;2023-04-28T00:58:54;-21395.00;;;9.46;55.17
7337;BME280;54510;42.016;23.098;2023-04-28T01:01:19;-21385.53;;;9.12;56.21
7337;BME280;54510;42.016;23.098;2023-04-28T01:03:45;-21385.13;;;9.10;56.59
7337;BME280;54510;42.016;23.098;2023-04-28T01:06:11;-21392.06;;;9.36;55.83
7337;BME280;54510;42.016;23.098;2023-04-28T01:08:36;-21385.97;;;9.14;55.88
7337;BME280;54510;42.016;23.098;2023-04-28T01:11:02;-21386.94;;;9.17;56.36
7337;BME280;54510;42.016;23.098;2023-04-28T01:13:27;-21386.66;;;9.16;55.94
7337;BME280;54510;42.016;23.098;2023-04-28T01:15:56;-21387.50;;;9.19;56.03
7337;BME280;54510;42.016;23.098;2023-04-28T01:18:21;-21375.25;;;8.75;57.41
7337;BME280;54510;42.016;23.098;2023-04-28T01:20:47;-21378.59;;;8.87;57.41
7337;BME280;54510;42.016;23.098;2023-04-28T01:23:15;-21375.38;;;8.75;57.63
7337;BME280;54510;42.016;23.098;2023-04-28T01:25:41;-21382.75;;;9.02;56.48
7337;BME280;54510;42.016;23.098;2023-04-28T01:28:08;-21385.69;;;9.13;55.90
7337;BME280;54510;42.016;23.098;2023-04-28T01:30:33;-21383.31;;;9.04;55.93
7337;BME280;54510;42.016;23.098;2023-04-28T01:32:59;-21382.34;;;9.00;56.48
7337;BME280;54510;42.016;23.098;2023-04-28T01:35:25;-21379.97;;;8.92;56.50
7337;BME280;54510;42.016;23.098;2023-04-28T01:37:50;-21378.44;;;8.86;56.42
7337;BME280;54510;42.016;23.098;2023-04-28T01:40:15;-21379.00;;;8.88;56.35
7337;BME280;54510;42.016;23.098;2023-04-28T01:42:40;-21378.88;;;8.88;56.90
7337;BME280;54510;42.016;23.098;2023-04-28T01:45:06;-21382.06;;;8.99;56.93
7337;BME280;54510;42.016;23.098;2023-04-28T01:47:31;-21380.13;;;8.92;56.71
7337;BME280;54510;42.016;23.098;2023-04-28T01:49:56;-21384.56;;;9.08;56.63
7337;BME280;54510;42.016;23.098;2023-04-28T01:52:22;-21382.06;;;8.99;56.37
7337;BME280;54510;42.016;23.098;2023-04-28T01:54:48;-21379.13;;;8.89;56.88
7337;BME280;54510;42.016;23.098;2023-04-28T01:57:13;-21374.56;;;8.72;57.14
7337;BME280;54510;42.016;23.098;2023-04-28T01:59:39;-21379.97;;;8.92;56.92
7337;BME280;54510;42.016;23.098;2023-04-28T02:02:04;-21373.72;;;8.69;56.88
7337;BME280;54510;42.016;23.098;2023-04-28T02:04:29;-21374.84;;;8.73;57.36
7337;BME280;54510;42.016;23.098;2023-04-28T02:06:55;-21379.69;;;8.91;56.46
7337;BME280;54510;42.016;23.098;2023-04-28T02:09:20;-21375.38;;;8.75;56.50
7337;BME280;54510;42.016;23.098;2023-04-28T02:11:45;-21372.19;;;8.63;57.43
7337;BME280;54510;42.016;23.098;2023-04-28T02:14:10;-21368.28;;;8.49;58.60
7337;BME280;54510;42.016;23.098;2023-04-28T02:16:36;-21366.75;;;8.44;59.09
7337;BME280;54510;42.016;23.098;2023-04-28T02:19:01;-21370.09;;;8.56;57.93
7337;BME280;54510;42.016;23.098;2023-04-28T02:21:26;-21371.06;;;8.59;57.05
7337;BME280;54510;42.016;23.098;2023-04-28T02:23:52;-21372.03;;;8.63;57.28
7337;BME280;54510;42.016;23.098;2023-04-28T02:26:17;-21369.97;;;8.55;56.92
7337;BME280;54510;42.016;23.098;2023-04-28T02:28:42;-21352.28;;;7.91;59.35
7337;BME280;54510;42.016;23.098;2023-04-28T02:31:08;-21370.53;;;8.57;57.57
7337;BME280;54510;42.016;23.098;2023-04-28T02:33:34;-21371.78;;;8.62;56.90
7337;BME280;54510;42.016;23.098;2023-04-28T02:36:00;-21377.75;;;8.84;55.84
7337;BME280;54510;42.016;23.098;2023-04-28T02:38:25;-21382.63;;;9.01;56.09
7337;BME280;54510;42.016;23.098;2023-04-28T02:41:02;-21379.41;;;8.90;55.93
7337;BME280;54510;42.016;23.098;2023-04-28T02:43:29;-21380.25;;;8.93;56.14
7337;BME280;54510;42.016;23.098;2023-04-28T02:45:54;-21383.31;;;9.04;55.87
7337;BME280;54510;42.016;23.098;2023-04-28T02:48:19;-21377.34;;;8.82;55.77
7337;BME280;54510;42.016;23.098;2023-04-28T02:50:45;-21372.19;;;8.63;56.61
7337;BME280;54510;42.016;23.098;2023-04-28T02:53:10;-21373.28;;;8.67;56.75
7337;BME280;54510;42.016;23.098;2023-04-28T02:55:35;-21374.00;;;8.70;57.45
7337;BME280;54510;42.016;23.098;2023-04-28T02:58:01;-21374.28;;;8.71;56.88
7337;BME280;54510;42.016;23.098;2023-04-28T03:00:26;-21372.31;;;8.64;57.09
7337;BME280;54510;42.016;23.098;2023-04-28T03:02:51;-21365.38;;;8.39;57.39
7337;BME280;54510;42.016;23.098;2023-04-28T03:05:17;-21362.16;;;8.27;57.75
7337;BME280;54510;42.016;23.098;2023-04-28T03:07:42;-21362.72;;;8.29;57.86
7337;BME280;54510;42.016;23.098;2023-04-28T03:10:07;-21368.00;;;8.48;58.11
7337;BME280;54510;42.016;23.098;2023-04-28T03:12:33;-21371.34;;;8.60;57.75
7337;BME280;54510;42.016;23.098;2023-04-28T03:14:58;-21365.38;;;8.39;58.25
7337;BME280;54510;42.016;23.098;2023-04-28T03:17:23;-21361.03;;;8.23;58.92
7337;BME280;54510;42.016;23.098;2023-04-28T03:19:48;-21363.16;;;8.30;58.75
7337;BME280;54510;42.016;23.098;2023-04-28T03:22:14;-21358.25;;;8.13;59.14
7337;BME280;54510;42.016;23.098;2023-04-28T03:24:39;-21361.19;;;8.23;60.15
7337;BME280;54510;42.016;23.098;2023-04-28T03:27:04;-21364.25;;;8.35;59.15
7337;BME280;54510;42.016;23.098;2023-04-28T03:29:30;-21359.25;;;8.16;59.74
7337;BME280;54510;42.016;23.098;2023-04-28T03:31:55;-21361.75;;;8.25;59.58
7337;BME280;54510;42.016;23.098;2023-04-28T03:34:20;-21358.13;;;8.12;59.89
7337;BME280;54510;42.016;23.098;2023-04-28T03:36:46;-21364.66;;;8.36;59.40
7337;BME280;54510;42.016;23.098;2023-04-28T03:39:11;-21351.31;;;7.87;60.27
7337;BME280;54510;42.016;23.098;2023-04-28T03:41:36;-21354.63;;;8.00;60.32
7337;BME280;54510;42.016;23.098;2023-04-28T03:44:02;-21364.81;;;8.37;59.91
7337;BME280;54510;42.016;23.098;2023-04-28T03:46:27;-21363.28;;;8.31;59.16
7337;BME280;54510;42.016;23.098;2023-04-28T03:48:53;-21354.22;;;7.98;60.61
7337;BME280;54510;42.016;23.098;2023-04-28T03:51:18;-21353.66;;;7.96;60.40
7337;BME280;54510;42.016;23.098;2023-04-28T03:53:43;-21350.06;;;7.83;60.92
7337;BME280;54510;42.016;23.098;2023-04-28T03:56:09;-21344.34;;;7.62;61.38
7337;BME280;54510;42.016;23.098;2023-04-28T03:58:34;-21347.81;;;7.75;61.18
7337;BME280;54510;42.016;23.098;2023-04-28T04:00:59;-21345.31;;;7.66;61.13
7337;BME280;54510;42.016;23.098;2023-04-28T04:03:25;-21348.66;;;7.78;61.36
7337;BME280;54510;42.016;23.098;2023-04-28T04:05:51;-21347.81;;;7.75;60.91
7337;BME280;54510;42.016;23.098;2023-04-28T04:08:16;-21343.91;;;7.61;61.59
7337;BME280;54510;42.016;23.098;2023-04-28T04:10:41;-21352.56;;;7.92;60.44
7337;BME280;54510;42.016;23.098;2023-04-28T04:13:06;-21352.00;;;7.90;59.91
7337;BME280;54510;42.016;23.098;2023-04-28T04:15:32;-21349.34;;;7.80;59.96
7337;BME280;54510;42.016;23.098;2023-04-28T04:17:57;-21347.97;;;7.75;60.04
7337;BME280;54510;42.016;23.098;2023-04-28T04:20:22;-21338.63;;;7.41;60.78
7337;BME280;54510;42.016;23.098;2023-04-28T04:22:47;-21334.72;;;7.27;61.68
7337;BME280;54510;42.016;23.098;2023-04-28T04:25:13;-21338.63;;;7.41;61.30
7337;BME280;54510;42.016;23.098;2023-04-28T04:27:38;-21339.88;;;7.46;61.69
7337;BME280;54510;42.016;23.098;2023-04-28T04:30:03;-21343.38;;;7.59;61.26
7337;BME280;54510;42.016;23.098;2023-04-28T04:32:29;-21348.25;;;7.76;60.42
7337;BME280;54510;42.016;23.098;2023-04-28T04:34:54;-21352.00;;;7.90;60.28
7337;BME280;54510;42.016;23.098;2023-04-28T04:37:21;-21351.16;;;7.87;59.90
7337;BME280;54510;42.016;23.098;2023-04-28T04:39:46;-21345.59;;;7.67;60.92
7337;BME280;54510;42.016;23.098;2023-04-28T04:42:12;-21351.59;;;7.88;60.10
7337;BME280;54510;42.016;23.098;2023-04-28T04:44:37;-21349.78;;;7.82;60.14
7337;BME280;54510;42.016;23.098;2023-04-28T04:47:02;-21355.63;;;8.03;59.40
7337;BME280;54510;42.016;23.098;2023-04-28T04:49:28;-21357.84;;;8.11;59.00
7337;BME280;54510;42.016;23.098;2023-04-28T04:51:53;-21355.75;;;8.04;58.88
7337;BME280;54510;42.016;23.098;2023-04-28T04:54:18;-21361.31;;;8.24;58.68
7337;BME280;54510;42.016;23.098;2023-04-28T04:56:43;-21364.53;;;8.36;58.30
7337;BME280;54510;42.016;23.098;2023-04-28T04:59:09;-21355.34;;;8.02;58.96
7337;BME280;54510;42.016;23.098;2023-04-28T05:01:34;-21364.66;;;8.36;58.37
7337;BME280;54510;42.016;23.098;2023-04-28T05:03:59;-21370.38;;;8.57;57.66
7337;BME280;54510;42.016;23.098;2023-04-28T05:06:25;-21372.19;;;8.63;57.42
7337;BME280;54510;42.016;23.098;2023-04-28T05:08:50;-21363.69;;;8.32;58.11
7337;BME280;54510;42.016;23.098;2023-04-28T05:11:15;-21373.84;;;8.69;58.31
7337;BME280;54510;42.016;23.098;2023-04-28T05:13:41;-21382.47;;;9.01;56.09
7337;BME280;54510;42.016;23.098;2023-04-28T05:16:06;-21386.38;;;9.15;56.09
7337;BME280;54510;42.016;23.098;2023-04-28T05:18:31;-21390.25;;;9.29;55.67
7337;BME280;54510;42.016;23.098;2023-04-28T05:20:57;-21397.91;;;9.57;54.72
7337;BME280;54510;42.016;23.098;2023-04-28T05:23:22;-21399.31;;;9.62;54.19
7337;BME280;54510;42.016;23.098;2023-04-28T05:25:48;-21403.75;;;9.78;54.38
7337;BME280;54510;42.016;23.098;2023-04-28T05:28:13;-21410.13;;;10.02;53.95
7337;BME280;54510;42.016;23.098;2023-04-28T05:30:39;-21407.34;;;9.91;54.59
7337;BME280;54510;42.016;23.098;2023-04-28T05:33:04;-21406.53;;;9.88;55.09
7337;BME280;54510;42.016;23.098;2023-04-28T05:35:29;-21402.63;;;9.74;54.66
7337;BME280;54510;42.016;23.098;2023-04-28T05:37:55;-21410.41;;;10.03;54.32
7337;BME280;54510;42.016;23.098;2023-04-28T05:40:21;-21413.47;;;10.14;54.09
7337;BME280;54510;42.016;23.098;2023-04-28T05:42:46;-21416.25;;;10.24;53.25
7337;BME280;54510;42.016;23.098;2023-04-28T05:45:11;-21419.03;;;10.34;52.44
7337;BME280;54510;42.016;23.098;2023-04-28T05:47:36;-21421.53;;;10.43;51.54
7337;BME280;54510;42.016;23.098;2023-04-28T05:50:02;-21420.41;;;10.39;49.81
7337;BME280;54510;42.016;23.098;2023-04-28T05:52:27;-21421.53;;;10.43;49.42
7337;BME280;54510;42.016;23.098;2023-04-28T05:54:52;-21422.50;;;10.47;49.45
7337;BME280;54510;42.016;23.098;2023-04-28T05:57:18;-21422.38;;;10.46;49.16
7337;BME280;54510;42.016;23.098;2023-04-28T05:59:43;-21424.44;;;10.54;48.99
7337;BME280;54510;42.016;23.098;2023-04-28T06:02:09;-21425.41;;;10.57;49.34
7337;BME280;54510;42.016;23.098;2023-04-28T06:04:34;-21429.59;;;10.73;48.96
7337;BME280;54510;42.016;23.098;2023-04-28T06:06:59;-21429.31;;;10.72;49.15
7337;BME280;54510;42.016;23.098;2023-04-28T06:09:25;-21431.09;;;10.78;48.28
7337;BME280;54510;42.016;23.098;2023-04-28T06:11:50;-21435.69;;;10.95;47.96
7337;BME280;54510;42.016;23.098;2023-04-28T06:14:15;-21439.16;;;11.07;47.97
7337;BME280;54510;42.016;23.098;2023-04-28T06:16:40;-21442.91;;;11.21;47.34
7337;BME280;54510;42.016;23.098;2023-04-28T06:19:06;-21445.81;;;11.32;47.14
7337;BME280;54510;42.016;23.098;2023-04-28T06:21:31;-21449.41;;;11.45;47.17
7337;BME280;54510;42.016;23.098;2023-04-28T06:23:57;-21444.16;;;11.26;46.94
7337;BME280;54510;42.016;23.098;2023-04-28T06:26:22;-21446.94;;;11.36;47.19
7337;BME280;54510;42.016;23.098;2023-04-28T06:28:48;-21450.38;;;11.48;46.53
7337;BME280;54510;42.016;23.098;2023-04-28T06:31:13;-21456.22;;;11.70;46.78
7337;BME280;54510;42.016;23.098;2023-04-28T06:33:39;-21457.19;;;11.73;45.96
7337;BME280;54510;42.016;23.098;2023-04-28T06:36:04;-21457.59;;;11.75;46.20
7337;BME280;54510;42.016;23.098;2023-04-28T06:38:30;-21455.94;;;11.69;44.98
7337;BME280;54510;42.016;23.098;2023-04-28T06:40:55;-21462.03;;;11.91;41.92
7337;BME280;54510;42.016;23.098;2023-04-28T06:43:20;-21458.16;;;11.77;41.32
7337;BME280;54510;42.016;23.098;2023-04-28T06:45:46;-21467.31;;;12.10;40.89
7337;BME280;54510;42.016;23.098;2023-04-28T06:48:11;-21470.22;;;12.21;40.48
7337;BME280;54510;42.016;23.098;2023-04-28T06:50:36;-21474.94;;;12.38;40.32
7337;BME280;54510;42.016;23.098;2023-04-28T06:53:01;-21469.53;;;12.18;40.63
7337;BME280;54510;42.016;23.098;2023-04-28T06:55:27;-21471.19;;;12.24;41.33
7337;BME280;54510;42.016;23.098;2023-04-28T06:57:52;-21467.88;;;12.12;39.81
7337;BME280;54510;42.016;23.098;2023-04-28T07:00:18;-21479.38;;;12.54;40.17
7337;BME280;54510;42.016;23.098;2023-04-28T07:02:43;-21488.34;;;12.87;39.64
7337;BME280;54510;42.016;23.098;2023-04-28T07:05:08;-21480.31;;;12.58;39.47
7337;BME280;54510;42.016;23.098;2023-04-28T07:07:34;-21489.47;;;12.91;39.99
7337;BME280;54510;42.016;23.098;2023-04-28T07:10:00;-21483.25;;;12.69;39.68
7337;BME280;54510;42.016;23.098;2023-04-28T07:12:26;-21480.19;;;12.57;39.78
7337;BME280;54510;42.016;23.098;2023-04-28T07:14:51;-21485.19;;;12.76;38.98
7337;BME280;54510;42.016;23.098;2023-04-28T07:17:16;-21493.19;;;13.05;38.56
7337;BME280;54510;42.016;23.098;2023-04-28T07:19:41;-21500.41;;;13.31;38.10
7337;BME280;54510;42.016;23.098;2023-04-28T07:22:07;-21496.41;;;13.17;38.03
7337;BME280;54510;42.016;23.098;2023-04-28T07:24:32;-21498.19;;;13.23;37.56
7337;BME280;54510;42.016;23.098;2023-04-28T07:26:57;-21497.22;;;13.20;38.13
7337;BME280;54510;42.016;23.098;2023-04-28T07:29:23;-21497.78;;;13.22;37.95
7337;BME280;54510;42.016;23.098;2023-04-28T07:31:48;-21492.25;;;13.01;38.73
7337;BME280;54510;42.016;23.098;2023-04-28T07:34:13;-21484.06;;;12.72;38.95
7337;BME280;54510;42.016;23.098;2023-04-28T07:36:39;-21492.78;;;13.03;38.63
7337;BME280;54510;42.016;23.098;2023-04-28T07:39:04;-21496.41;;;13.17;37.46
7337;BME280;54510;42.016;23.098;2023-04-28T07:41:30;-21496.25;;;13.16;36.74
7337;BME280;54510;42.016;23.098;2023-04-28T07:43:59;-21495.00;;;13.12;37.12
7337;BME280;54510;42.016;23.098;2023-04-28T07:46:25;-21503.31;;;13.42;36.92
7337;BME280;54510;42.016;23.098;2023-04-28T07:48:50;-21504.84;;;13.48;36.67
7337;BME280;54510;42.016;23.098;2023-04-28T07:51:16;-21493.63;;;13.06;37.33
7337;BME280;54510;42.016;23.098;2023-04-28T07:53:41;-21510.09;;;13.67;37.15
7337;BME280;54510;42.016;23.098;2023-04-28T07:56:06;-21508.84;;;13.62;37.22
7337;BME280;54510;42.016;23.098;2023-04-28T07:58:31;-21493.63;;;13.06;37.03
7337;BME280;54510;42.016;23.098;2023-04-28T08:00:57;-21507.72;;;13.58;37.27
7337;BME280;54510;42.016;23.098;2023-04-28T08:03:22;-21503.88;;;13.44;36.33
7337;BME280;54510;42.016;23.098;2023-04-28T08:05:47;-21505.53;;;13.50;36.95
7337;BME280;54510;42.016;23.098;2023-04-28T08:08:12;-21500.00;;;13.30;37.17
7337;BME280;54510;42.016;23.098;2023-04-28T08:10:38;-21505.94;;;13.52;36.86
7337;BME280;54510;42.016;23.098;2023-04-28T08:13:06;-21525.72;;;14.24;36.48
7337;BME280;54510;42.016;23.098;2023-04-28T08:15:31;-21522.25;;;14.11;36.29
7337;BME280;54510;42.016;23.098;2023-04-28T08:17:57;-21516.59;;;13.91;35.99
7337;BME280;54510;42.016;23.098;2023-04-28T08:20:22;-21514.38;;;13.82;35.87
7337;BME280;54510;42.016;23.098;2023-04-28T08:22:47;-21522.53;;;14.12;35.45
7337;BME280;54510;42.016;23.098;2023-04-28T08:25:12;-21528.47;;;14.34;35.86
7337;BME280;54510;42.016;23.098;2023-04-28T08:27:38;-21531.09;;;14.44;34.05
7337;BME280;54510;42.016;23.098;2023-04-28T08:30:05;-21538.41;;;14.71;34.01
7337;BME280;54510;42.016;23.098;2023-04-28T08:32:31;-21545.03;;;14.95;34.46
7337;BME280;54510;42.016;23.098;2023-04-28T08:34:56;-21540.22;;;14.77;34.01
7337;BME280;54510;42.016;23.098;2023-04-28T08:37:21;-21528.06;;;14.33;34.60
7337;BME280;54510;42.016;23.098;2023-04-28T08:39:47;-21540.22;;;14.77;34.13
7337;BME280;54510;42.016;23.098;2023-04-28T08:42:12;-21526.53;;;14.27;33.81
7337;BME280;54510;42.016;23.098;2023-04-28T08:44:38;-21535.94;;;14.61;33.05
7337;BME280;54510;42.016;23.098;2023-04-28T08:47:11;-21538.16;;;14.70;33.73
7337;BME280;54510;42.016;23.098;2023-04-28T08:49:37;-21539.13;;;14.73;33.48
7337;BME280;54510;42.016;23.098;2023-04-28T08:52:02;-21543.66;;;14.90;33.03
7337;BME280;54510;42.016;23.098;2023-04-28T08:54:33;-21548.09;;;15.06;32.66
7337;BME280;54510;42.016;23.098;2023-04-28T08:57:00;-21554.28;;;15.29;32.66
7337;BME280;54510;42.016;23.098;2023-04-28T08:59:26;-21556.78;;;15.38;32.92
7337;BME280;54510;42.016;23.098;2023-04-28T09:01:51;-21557.34;;;15.40;32.69
7337;BME280;54510;42.016;23.098;2023-04-28T09:04:16;-21536.91;;;14.65;33.50
7337;BME280;54510;42.016;23.098;2023-04-28T09:06:42;-21546.56;;;15.00;34.70
7337;BME280;54510;42.016;23.098;2023-04-28T09:09:19;-21550.03;;;15.13;33.67
7337;BME280;54510;42.016;23.098;2023-04-28T09:14:16;-21547.25;;;15.03;32.84
7337;BME280;54510;42.016;23.098;2023-04-28T09:16:41;-21550.56;;;15.15;33.93
7337;BME280;54510;42.016;23.098;2023-04-28T09:19:06;-21548.63;;;15.08;32.46
7337;BME280;54510;42.016;23.098;2023-04-28T09:21:31;-21549.06;;;15.10;33.60
7337;BME280;54510;42.016;23.098;2023-04-28T09:23:57;-21566.03;;;15.72;32.43
7337;BME280;54510;42.016;23.098;2023-04-28T09:26:22;-21572.78;;;15.97;32.36
7337;BME280;54510;42.016;23.098;2023-04-28T09:28:48;-21577.06;;;16.12;31.75
7337;BME280;54510;42.016;23.098;2023-04-28T09:31:23;-21577.06;;;16.12;31.57
7337;BME280;54510;42.016;23.098;2023-04-28T09:33:58;-21557.88;;;15.42;32.13
7337;BME280;54510;42.016;23.098;2023-04-28T09:36:27;-21556.50;;;15.37;32.05
7337;BME280;54510;42.016;23.098;2023-04-28T09:38:56;-21568.78;;;15.82;32.28
7337;BME280;54510;42.016;23.098;2023-04-28T09:41:21;-21576.50;;;16.10;31.19
7337;BME280;54510;42.016;23.098;2023-04-28T09:44:08;-21574.31;;;16.02;31.68
7337;BME280;54510;42.016;23.098;2023-04-28T09:46:34;-21564.38;;;15.66;32.47
7337;BME280;54510;42.016;23.098;2023-04-28T09:48:59;-21562.59;;;15.59;32.02
7337;BME280;54510;42.016;23.098;2023-04-28T09:51:25;-21555.00;;;15.31;31.13
7337;BME280;54510;42.016;23.098;2023-04-28T09:53:50;-21551.81;;;15.20;31.90
7337;BME280;54510;42.016;23.098;2023-04-28T09:56:18;-21558.84;;;15.46;31.14
7337;BME280;54510;42.016;23.098;2023-04-28T09:58:45;-21568.50;;;15.81;31.21
7337;BME280;54510;42.016;23.098;2023-04-28T10:01:12;-21585.59;;;16.44;31.21
7337;BME280;54510;42.016;23.098;2023-04-28T10:03:37;-21587.53;;;16.51;30.92
7337;BME280;54510;42.016;23.098;2023-04-28T10:06:03;-21586.97;;;16.49;30.57
7337;BME280;54510;42.016;23.098;2023-04-28T10:08:29;-21587.94;;;16.52;29.63
7337;BME280;54510;42.016;23.098;2023-04-28T10:10:54;-21570.03;;;15.87;29.77
7337;BME280;54510;42.016;23.098;2023-04-28T10:13:21;-21579.81;;;16.23;29.38
7337;BME280;54510;42.016;23.098;2023-04-28T10:15:46;-21589.19;;;16.57;29.37
7337;BME280;54510;42.016;23.098;2023-04-28T10:18:12;-21593.59;;;16.73;30.27
7337;BME280;54510;42.016;23.098;2023-04-28T10:20:39;-21594.00;;;16.75;30.31
7337;BME280;54510;42.016;23.098;2023-04-28T10:23:29;-21604.06;;;17.12;30.86
7337;BME280;54510;42.016;23.098;2023-04-28T10:25:59;-21598.56;;;16.91;30.25
7337;BME280;54510;42.016;23.098;2023-04-28T10:28:27;-21609.97;;;17.33;29.36
7337;BME280;54510;42.016;23.098;2023-04-28T10:31:11;-21611.78;;;17.40;29.15
7337;BME280;54510;42.016;23.098;2023-04-28T10:33:37;-21594.56;;;16.77;29.58
7337;BME280;54510;42.016;23.098;2023-04-28T10:36:03;-21603.53;;;17.10;28.87
7337;BME280;54510;42.016;23.098;2023-04-28T10:38:28;-21596.50;;;16.84;28.75
7337;BME280;54510;42.016;23.098;2023-04-28T10:40:53;-21602.00;;;17.04;28.92
7337;BME280;54510;42.016;23.098;2023-04-28T10:54:13;-21621.28;;;17.75;28.95
7337;BME280;54510;42.016;23.098;2023-04-28T10:56:32;-21613.97;;;17.48;27.71
7337;BME280;54510;42.016;23.098;2023-04-28T10:58:57;-21621.56;;;17.76;28.27
7337;BME280;54510;42.016;23.098;2023-04-28T11:01:23;-21628.28;;;18.01;27.86
7337;BME280;54510;42.016;23.098;2023-04-28T11:03:52;-21628.69;;;18.02;27.82
7337;BME280;54510;42.016;23.098;2023-04-28T11:06:33;-21616.19;;;17.56;27.70
7337;BME280;54510;42.016;23.098;2023-04-28T11:09:00;-21605.44;;;17.17;27.93
7337;BME280;54510;42.016;23.098;2023-04-28T11:11:27;-21620.88;;;17.73;27.86
7337;BME280;54510;42.016;23.098;2023-04-28T11:13:53;-21614.13;;;17.49;26.42
7337;BME280;54510;42.016;23.098;2023-04-28T11:16:20;-21626.63;;;17.95;26.59
7337;BME280;54510;42.016;23.098;2023-04-28T11:18:50;-21623.75;;;17.84;25.83
7337;BME280;54510;42.016;23.098;2023-04-28T11:21:16;-21610.69;;;17.36;25.58
7337;BME280;54510;42.016;23.098;2023-04-28T11:23:42;-21630.91;;;18.10;25.28
7337;BME280;54510;42.016;23.098;2023-04-28T11:26:07;-21628.69;;;18.02;24.97
7337;BME280;54510;42.016;23.098;2023-04-28T11:28:32;-21637.09;;;18.33;25.44
7337;BME280;54510;42.016;23.098;2023-04-28T11:31:12;-21640.94;;;18.47;25.12
7337;BME280;54510;42.016;23.098;2023-04-28T11:33:42;-21635.44;;;18.27;25.83
7337;BME280;54510;42.016;23.098;2023-04-28T11:36:20;-21645.06;;;18.63;25.90
7337;BME280;54510;42.016;23.098;2023-04-28T11:38:45;-21643.28;;;18.56;25.13
7337;BME280;54510;42.016;23.098;2023-04-28T11:41:12;-21640.38;;;18.45;25.26
7337;BME280;54510;42.016;23.098;2023-04-28T11:43:38;-21655.38;;;19.01;24.67
7337;BME280;54510;42.016;23.098;2023-04-28T11:46:04;-21659.91;;;19.17;23.87
7337;BME280;54510;42.016;23.098;2023-04-28T11:48:31;-21650.28;;;18.82;24.71
7337;BME280;54510;42.016;23.098;2023-04-28T11:50:56;-21655.50;;;19.01;23.38
7337;BME280;54510;42.016;23.098;2023-04-28T11:53:39;-21659.91;;;19.17;22.67
7337;BME280;54510;42.016;23.098;2023-04-28T11:56:04;-21669.78;;;19.54;22.76
7337;BME280;54510;42.016;23.098;2023-04-28T11:58:32;-21661.28;;;19.22;22.73
7337;BME280;54510;42.016;23.098;2023-04-28T12:01:09;-21666.75;;;19.43;21.30
7337;BME280;54510;42.016;23.098;2023-04-28T12:03:44;-21669.50;;;19.53;22.35
7337;BME280;54510;42.016;23.098;2023-04-28T12:06:10;-21675.41;;;19.75;22.96
7337;BME280;54510;42.016;23.098;2023-04-28T12:08:35;-21659.34;;;19.15;24.24
7337;BME280;54510;42.016;23.098;2023-04-28T12:11:10;-21677.31;;;19.82;23.88
7337;BME280;54510;42.016;23.098;2023-04-28T12:13:36;-21694.19;;;20.44;23.79
7337;BME280;54510;42.016;23.098;2023-04-28T12:16:03;-21680.22;;;19.92;23.17
7337;BME280;54510;42.016;23.098;2023-04-28T12:18:30;-21684.59;;;20.08;23.54
7337;BME280;54510;42.016;23.098;2023-04-28T12:20:56;-21693.50;;;20.41;23.37
7337;BME280;54510;42.016;23.098;2023-04-28T12:23:30;-21682.69;;;20.01;23.73
7337;BME280;54510;42.016;23.098;2023-04-28T12:25:56;-21692.16;;;20.36;23.24
7337;BME280;54510;42.016;23.098;2023-04-28T12:28:21;-21691.19;;;20.33;22.37
7337;BME280;54510;42.016;23.098;2023-04-28T12:30:47;-21689.00;;;20.25;22.76
7337;BME280;54510;42.016;23.098;2023-04-28T12:33:25;-21699.00;;;20.62;22.88
7337;BME280;54510;42.016;23.098;2023-04-28T12:35:51;-21689.25;;;20.26;22.92
7337;BME280;54510;42.016;23.098;2023-04-28T12:38:18;-21692.84;;;20.39;22.58
7337;BME280;54510;42.016;23.098;2023-04-28T12:40:44;-21695.16;;;20.47;23.25
7337;BME280;54510;42.016;23.098;2023-04-28T12:43:09;-21692.28;;;20.37;22.31
7337;BME280;54510;42.016;23.098;2023-04-28T12:45:35;-21690.34;;;20.30;22.03
7337;BME280;54510;42.016;23.098;2023-04-28T12:48:00;-21701.47;;;20.71;22.55
7337;BME280;54510;42.016;23.098;2023-04-28T12:50:26;-21709.00;;;20.99;22.52
7337;BME280;54510;42.016;23.098;2023-04-28T12:52:53;-21709.81;;;21.02;22.25
7337;BME280;54510;42.016;23.098;2023-04-28T12:55:20;-21697.91;;;20.58;22.94
7337;BME280;54510;42.016;23.098;2023-04-28T12:57:45;-21707.75;;;20.94;22.29
7337;BME280;54510;42.016;23.098;2023-04-28T13:00:11;-21701.31;;;20.70;22.80
7337;BME280;54510;42.016;23.098;2023-04-28T13:02:40;-21710.22;;;21.03;22.16